Time;durP1;ratioP1;P1;durP2;ratioP2;P2;SDS_P1;SDS_P2;PMS_P1;PMS_P2;Temp;Humidity;BMP_temperature;BMP_pressure;BME280_temperature;BME280_humidity;BME280_pressure;Samples;Min_cycle;Max_cycle;Signal;HPM_P1;HPM_P2
2022/04/30 00:01:11;;;;;;;20.13;12.95;;;13.30;99.90;;;;;;5056234;28;20090;-81
2022/04/30 00:03:38;;;;;;;19.77;13.02;;;13.30;99.90;;;;;;5033050;28;20033;-84
2022/04/30 00:06:04;;;;;;;23.38;12.55;;;13.40;99.90;;;;;;5035324;28;20490;-83
2022/04/30 00:08:30;;;;;;;22.65;13.75;;;;;;;;;;5038944;28;20041;-83
2022/04/30 00:10:56;;;;;;;20.40;12.48;;;;;;;;;;5048729;28;20021;-81
2022/04/30 00:13:22;;;;;;;21.55;13.10;;;;;;;;;;5037648;28;20075;-83
2022/04/30 00:15:48;;;;;;;20.50;12.70;;;;;;;;;;5036997;28;20044;-80
2022/04/30 00:18:15;;;;;;;23.77;12.73;;;;;;;;;;5056316;28;20280;-84
2022/04/30 00:20:45;;;;;;;23.23;12.88;;;;;;;;;;5039459;28;20146;-84
2022/04/30 00:23:19;;;;;;;19.90;12.13;;;;;;;;;;5049305;28;20025;-86
2022/04/30 00:25:48;;;;;;;21.60;11.32;;;13.30;99.90;;;;;;5053343;28;20025;-83
2022/04/30 00:28:14;;;;;;;19.67;12.00;;;;;;;;;;5049174;28;20033;-84
2022/04/30 00:30:43;;;;;;;18.85;12.10;;;;;;;;;;5034225;28;20029;-83
2022/04/30 00:33:09;;;;;;;22.83;11.88;;;;;;;;;;5032753;28;20097;-82
2022/04/30 00:35:36;;;;;;;20.25;12.15;;;13.20;99.90;;;;;;5034297;28;20029;-82
2022/04/30 00:38:02;;;;;;;22.08;12.27;;;13.20;99.90;;;;;;5053671;28;20284;-83
2022/04/30 00:40:28;;;;;;;17.95;11.60;;;;;;;;;;5035858;28;20044;-83
2022/04/30 00:42:56;;;;;;;19.98;11.98;;;13.20;99.90;;;;;;5043500;28;20083;-85
2022/04/30 00:45:22;;;;;;;22.65;12.45;;;;;;;;;;5068766;28;20013;-87
2022/04/30 00:47:48;;;;;;;16.45;11.15;;;;;;;;;;5072212;28;20028;-86
2022/04/30 00:50:21;;;;;;;16.33;11.25;;;13.10;99.90;;;;;;5048817;28;20085;-86
2022/04/30 00:52:47;;;;;;;19.15;11.75;;;;;;;;;;5071657;28;20037;-82
2022/04/30 00:55:19;;;;;;;18.90;11.40;;;13.10;99.90;;;;;;5067747;28;20040;-84
2022/04/30 00:57:45;;;;;;;19.35;12.00;;;13.00;99.90;;;;;;5051293;28;20032;-81
2022/04/30 01:00:12;;;;;;;23.13;12.02;;;13.00;99.90;;;;;;5069282;28;20100;-86
2022/04/30 01:02:38;;;;;;;24.10;12.73;;;13.00;99.90;;;;;;5050669;28;20017;-83
2022/04/30 01:05:04;;;;;;;20.45;12.23;;;13.00;99.90;;;;;;5051501;28;20013;-84
2022/04/30 01:07:31;;;;;;;19.58;12.07;;;13.00;99.90;;;;;;5060854;28;20029;-85
2022/04/30 01:09:57;;;;;;;20.02;12.35;;;13.00;99.90;;;;;;5046611;28;20029;-82
2022/04/30 01:12:25;;;;;;;20.45;12.30;;;13.00;99.90;;;;;;5046048;28;20049;-88
2022/04/30 01:14:52;;;;;;;20.15;12.55;;;;;;;;;;5062051;28;20055;-82
2022/04/30 01:17:18;;;;;;;20.08;12.00;;;;;;;;;;5045050;28;20029;-83
2022/04/30 01:19:45;;;;;;;19.63;12.60;;;;;;;;;;5066070;28;20116;-83
2022/04/30 01:22:20;;;;;;;20.08;12.23;;;12.90;99.90;;;;;;5026905;28;20033;-83
2022/04/30 01:24:48;;;;;;;19.58;12.38;;;12.80;99.90;;;;;;5041225;28;20045;-85
2022/04/30 01:29:43;;;;;;;21.60;13.38;;;12.80;99.90;;;;;;5064763;28;21319;-84
2022/04/30 01:37:37;;;;;;;19.27;12.55;;;12.70;99.90;;;;;;5066532;28;20082;-82
2022/04/30 01:40:09;;;;;;;19.60;12.85;;;12.70;99.90;;;;;;5067764;28;20020;-81
2022/04/30 01:42:46;;;;;;;20.40;13.35;;;12.60;99.90;;;;;;5055832;28;20483;-84
2022/04/30 01:45:14;;;;;;;20.73;13.40;;;12.60;99.90;;;;;;5063397;28;20017;-84
2022/04/30 01:47:41;;;;;;;24.00;13.55;;;12.50;99.90;;;;;;5052776;28;20036;-82
2022/04/30 01:50:08;;;;;;;20.80;12.48;;;13.70;99.90;;;;;;5049768;28;20029;-83
2022/04/30 01:52:34;;;;;;;23.58;13.85;;;;;;;;;;5054062;28;20044;-82
2022/04/30 01:55:00;;;;;;;22.77;14.20;;;;;;;;;;5053004;28;20039;-82
2022/04/30 01:57:27;;;;;;;23.27;13.20;;;;;;;;;;5054377;28;20426;-84
2022/04/30 01:59:54;;;;;;;24.65;15.40;;;12.50;99.90;;;;;;5076596;28;20035;-84
2022/04/30 02:02:23;;;;;;;24.90;13.65;;;12.40;99.90;;;;;;5056253;28;20024;-86
2022/04/30 02:04:52;;;;;;;21.13;13.10;;;12.40;99.90;;;;;;5037709;28;20040;-85
2022/04/30 02:07:19;;;;;;;25.88;13.55;;;12.30;99.90;;;;;;5066976;28;20473;-83
2022/04/30 02:09:46;;;;;;;23.10;13.35;;;12.30;99.90;;;;;;5075688;28;20043;-82
2022/04/30 02:12:12;;;;;;;23.20;13.75;;;;;;;;;;5074680;28;20108;-82
2022/04/30 02:14:42;;;;;;;22.73;13.65;;;12.20;99.90;;;;;;5052181;28;20543;-81
2022/04/30 02:17:10;;;;;;;20.80;12.63;;;12.20;99.90;;;;;;5058090;28;20075;-83
2022/04/30 02:22:24;;;;;;;21.42;13.25;;;;;;;;;;5069897;28;20067;-84
2022/04/30 02:24:50;;;;;;;20.20;13.30;;;;;;;;;;5051223;28;20056;-83
2022/04/30 02:27:17;;;;;;;19.70;13.07;;;;;;;;;;5068519;28;20068;-87
2022/04/30 02:29:44;;;;;;;22.83;13.55;;;;;;;;;;5068411;28;20028;-84
2022/04/30 02:32:10;;;;;;;22.23;13.48;;;12.00;99.90;;;;;;5056185;28;20055;-85
2022/04/30 02:34:36;;;;;;;19.73;12.68;;;;;;;;;;5073151;28;20031;-84
2022/04/30 02:37:03;;;;;;;22.75;12.43;;;12.00;99.90;;;;;;5074207;28;20028;-84
2022/04/30 02:39:30;;;;;;;23.30;13.98;;;11.90;99.90;;;;;;5076102;28;20028;-86
2022/04/30 02:41:56;;;;;;;21.08;13.93;;;;;;;;;;5057881;28;20095;-82
2022/04/30 02:44:26;;;;;;;21.40;13.48;;;;;;;;;;5074819;28;20033;-84
2022/04/30 02:46:54;;;;;;;22.85;13.00;;;11.80;99.90;;;;;;5069755;28;20039;-82
2022/04/30 02:49:21;;;;;;;20.38;13.68;;;;;;;;;;5063135;28;20032;-82
2022/04/30 02:51:49;;;;;;;20.45;12.98;;;11.70;99.90;;;;;;5062007;28;20039;-89
2022/04/30 02:54:15;;;;;;;21.63;13.63;;;;;;;;;;5073897;28;20024;-86
2022/04/30 02:56:42;;;;;;;19.58;12.98;;;;;;;;;;5067835;28;20035;-86
2022/04/30 03:01:53;;;;;;;22.33;12.95;;;11.60;99.90;;;;;;5082886;28;20082;-82
2022/04/30 03:04:19;;;;;;;20.35;12.98;;;;;;;;;;5076416;28;20143;-87
2022/04/30 03:06:46;;;;;;;22.75;13.70;;;11.50;99.90;;;;;;5089835;28;20028;-85
2022/04/30 03:09:12;;;;;;;20.83;13.93;;;;;;;;;;5093390;28;20024;-88
2022/04/30 03:11:38;;;;;;;23.20;13.63;;;;;;;;;;5077885;28;20016;-85
2022/04/30 03:14:04;;;;;;;17.70;11.88;;;;;;;;;;5090479;28;20104;-86
2022/04/30 03:22:00;;;;;;;23.17;13.43;;;11.30;99.90;;;;;;5083994;28;20047;-85
2022/04/30 03:24:29;;;;;;;20.88;13.70;;;11.30;99.90;;;;;;5069606;28;20037;-86
2022/04/30 03:26:54;;;;;;;21.45;12.73;;;11.30;99.90;;;;;;5086334;28;20024;-84
2022/04/30 03:29:20;;;;;;;23.23;13.70;;;11.30;99.90;;;;;;5068356;28;20054;-86
2022/04/30 03:31:47;;;;;;;21.17;13.88;;;;;;;;;;5082875;28;20028;-85
2022/04/30 03:34:15;;;;;;;22.13;14.07;;;;;;;;;;5082774;28;20117;-84
2022/04/30 03:36:43;;;;;;;21.02;13.15;;;11.20;99.90;;;;;;5079339;28;20062;-87
2022/04/30 03:39:09;;;;;;;25.60;13.73;;;;;;;;;;5079595;28;20040;-86
2022/04/30 03:41:36;;;;;;;19.83;13.13;;;11.30;99.90;;;;;;5079132;28;20036;-86
2022/04/30 03:44:02;;;;;;;22.40;12.85;;;11.30;99.90;;;;;;5060681;28;20024;-84
2022/04/30 03:46:28;;;;;;;22.42;12.57;;;;;;;;;;5073615;28;20036;-82
2022/04/30 03:48:56;;;;;;;20.75;12.77;;;;;;;;;;5074629;28;20544;-87
2022/04/30 03:51:22;;;;;;;21.52;13.80;;;;;;;;;;5069471;28;20025;-89
2022/04/30 03:53:49;;;;;;;21.80;13.45;;;11.20;99.90;;;;;;5044886;28;20017;-85
2022/04/30 03:56:17;;;;;;;18.30;12.70;;;11.20;99.90;;;;;;5050590;28;20052;-85
2022/04/30 03:58:43;;;;;;;21.77;13.77;;;;;;;;;;5055441;28;20032;-86
2022/04/30 04:01:09;;;;;;;22.92;13.25;;;;;;;;;;5056431;28;20025;-86
2022/04/30 04:03:36;;;;;;;20.20;12.93;;;11.20;99.90;;;;;;5059067;28;20150;-85
2022/04/30 04:06:02;;;;;;;19.67;13.13;;;;;;;;;;5051196;28;20028;-85
2022/04/30 04:08:28;;;;;;;21.65;12.70;;;;;;;;;;5034069;28;20044;-85
2022/04/30 04:10:54;;;;;;;21.77;13.48;;;;;;;;;;5055983;28;20021;-87
2022/04/30 04:18:51;;;;;;;22.38;12.57;;;11.10;99.90;;;;;;5061798;28;20051;-88
2022/04/30 04:21:19;;;;;;;20.42;12.88;;;11.10;99.90;;;;;;5070869;28;20107;-83
2022/04/30 04:26:30;;;;;;;20.77;12.60;;;11.00;99.90;;;;;;5069010;28;20054;-89
2022/04/30 04:28:56;;;;;;;21.33;12.93;;;;;;;;;;5051862;28;20063;-89
2022/04/30 04:31:24;;;;;;;20.58;12.60;;;11.10;99.90;;;;;;5051515;28;20068;-87
2022/04/30 04:33:50;;;;;;;22.02;13.25;;;;;;;;;;5052958;28;20024;-87
2022/04/30 04:36:16;;;;;;;22.98;12.82;;;11.00;99.90;;;;;;5065170;28;20115;-86
2022/04/30 04:38:43;;;;;;;22.00;12.93;;;;;;;;;;5052324;28;20082;-85
2022/04/30 04:41:09;;;;;;;21.20;12.98;;;;;;;;;;5065817;28;20028;-88
2022/04/30 04:43:35;;;;;;;18.20;12.32;;;11.10;99.90;;;;;;5067066;28;20039;-85
2022/04/30 04:46:04;;;;;;;20.25;12.57;;;11.20;99.90;;;;;;5068959;28;20040;-86
2022/04/30 04:48:31;;;;;;;21.35;12.52;;;11.20;99.90;;;;;;5067169;28;20032;-85
2022/04/30 04:50:57;;;;;;;22.02;13.45;;;11.30;99.90;;;;;;5045381;28;20025;-84
2022/04/30 04:53:23;;;;;;;23.85;13.70;;;;;;;;;;5066566;28;20081;-88
2022/04/30 04:55:49;;;;;;;19.95;12.65;;;11.20;99.90;;;;;;5053189;28;20020;-86
2022/04/30 04:58:15;;;;;;;19.20;13.05;;;11.30;99.90;;;;;;5050774;28;20139;-85
2022/04/30 05:00:41;;;;;;;20.85;12.35;;;11.30;99.90;;;;;;5052262;28;20490;-89
2022/04/30 05:03:07;;;;;;;20.88;13.13;;;;;;;;;;5069540;28;20502;-87
2022/04/30 05:05:35;;;;;;;19.95;12.60;;;;;;;;;;5070239;28;20067;-85
2022/04/30 05:08:01;;;;;;;19.58;12.57;;;11.40;99.90;;;;;;5065311;28;20035;-87
2022/04/30 05:10:27;;;;;;;20.88;12.52;;;;;;;;;;5066391;28;20035;-86
2022/04/30 05:12:53;;;;;;;21.13;12.63;;;;;;;;;;5047884;28;20357;-86
2022/04/30 05:15:19;;;;;;;18.95;12.90;;;;;;;;;;5049997;28;20020;-84
2022/04/30 05:17:45;;;;;;;23.73;12.52;;;;;;;;;;5062054;28;20024;-89
2022/04/30 05:20:11;;;;;;;19.08;12.18;;;;;;;;;;5049470;28;20024;-88
2022/04/30 05:22:37;;;;;;;19.23;12.55;;;;;;;;;;5053177;28;20040;-87
2022/04/30 05:25:03;;;;;;;19.83;12.82;;;;;;;;;;5065989;28;20463;-85
2022/04/30 05:27:29;;;;;;;21.55;13.30;;;11.80;99.90;;;;;;5050646;28;20037;-83
2022/04/30 05:29:55;;;;;;;20.42;13.45;;;;;;;;;;5055115;28;20035;-84
2022/04/30 05:32:21;;;;;;;22.90;14.35;;;11.80;99.90;;;;;;5066017;28;20371;-84
2022/04/30 05:34:47;;;;;;;21.02;14.90;;;;;;;;;;5061228;28;20025;-84
2022/04/30 05:37:13;;;;;;;21.10;14.65;;;;;;;;;;5064371;28;20008;-85
2022/04/30 05:39:39;;;;;;;19.30;13.35;;;;;;;;;;5074011;28;20043;-83
2022/04/30 05:42:05;;;;;;;19.48;13.98;;;;;;;;;;5048918;28;20515;-84
2022/04/30 05:44:31;;;;;;;20.13;14.20;;;12.30;99.90;;;;;;5053849;28;20555;-85
2022/04/30 05:46:57;;;;;;;22.48;15.23;;;12.50;99.90;;;;;;5050987;28;21660;-82
2022/04/30 05:49:23;;;;;;;25.65;14.65;;;12.60;99.90;;;;;;5053734;28;20021;-86
2022/04/30 05:51:52;;;;;;;19.15;13.95;;;;;;;;;;5056290;28;20048;-84
2022/04/30 05:54:19;;;;;;;20.55;13.48;;;;;;;;;;5069683;28;20025;-85
2022/04/30 05:56:45;;;;;;;18.42;12.88;;;;;;;;;;5058253;28;20393;-84
2022/04/30 05:59:11;;;;;;;21.90;14.35;;;;;;;;;;5060716;28;20120;-82
2022/04/30 06:01:37;;;;;;;21.80;13.63;;;;;;;;;;5066839;28;20496;-83
2022/04/30 06:04:03;;;;;;;21.52;13.85;;;;;;;;;;5066954;28;20078;-82
2022/04/30 06:06:29;;;;;;;19.35;13.60;;;;;;;;;;5045166;28;20536;-83
2022/04/30 06:08:56;;;;;;;21.13;13.70;;;13.10;99.90;;;;;;5048997;28;20033;-82
2022/04/30 06:11:22;;;;;;;18.67;13.10;;;;;;;;;;5071742;28;20024;-82
2022/04/30 06:13:47;;;;;;;19.77;13.82;;;13.20;99.90;;;;;;5069316;28;20612;-81
2022/04/30 06:16:16;;;;;;;20.33;14.18;;;13.20;99.90;;;;;;5061542;28;20024;-83
2022/04/30 06:18:42;;;;;;;16.77;12.65;;;13.20;99.90;;;;;;5051833;28;20039;-82
2022/04/30 06:21:08;;;;;;;18.75;12.88;;;13.20;99.90;;;;;;5071742;28;20035;-83
2022/04/30 06:23:34;;;;;;;18.15;13.07;;;;;;;;;;5075351;28;20028;-83
2022/04/30 06:26:00;;;;;;;20.25;13.10;;;;;;;;;;5072555;28;20033;-80
2022/04/30 06:28:26;;;;;;;19.23;13.38;;;13.40;99.90;;;;;;5075931;28;20054;-81
2022/04/30 06:30:52;;;;;;;19.63;12.25;;;;;;;;;;5075696;28;20070;-81
2022/04/30 06:33:17;;;;;;;21.98;13.77;;;13.30;99.90;;;;;;5060934;28;20092;-82
2022/04/30 06:35:44;;;;;;;16.70;12.48;;;13.40;99.90;;;;;;5056826;28;20049;-81
2022/04/30 06:38:11;;;;;;;19.65;12.50;;;13.40;99.90;;;;;;5041691;28;20141;-81
2022/04/30 06:40:37;;;;;;;16.27;12.23;;;13.40;99.90;;;;;;5068799;28;20043;-80
2022/04/30 06:43:03;;;;;;;17.50;12.23;;;13.40;99.90;;;;;;5067328;28;20029;-82
2022/04/30 06:45:29;;;;;;;17.10;11.60;;;13.40;99.90;;;;;;5080805;28;20039;-81
2022/04/30 06:47:54;;;;;;;18.08;11.85;;;13.50;99.90;;;;;;5073465;28;20173;-84
2022/04/30 06:50:20;;;;;;;19.70;11.70;;;14.80;99.90;;;;;;5065471;28;20489;-84
2022/04/30 06:58:14;;;;;;;16.63;11.25;;;13.60;99.90;;;;;;5068147;28;20043;-81
2022/04/30 07:03:26;;;;;;;16.58;11.45;;;15.10;99.90;;;;;;5070563;28;20028;-80
2022/04/30 07:05:52;;;;;;;18.88;12.02;;;13.60;99.90;;;;;;5053893;28;20375;-82
2022/04/30 07:08:18;;;;;;;16.02;11.23;;;;;;;;;;5059925;28;21587;-84
2022/04/30 07:10:44;;;;;;;16.02;11.40;;;13.60;99.90;;;;;;5067368;28;20029;-81
2022/04/30 07:13:10;;;;;;;17.50;11.68;;;;;;;;;;5070637;28;20032;-83
2022/04/30 07:15:36;;;;;;;18.17;11.80;;;;;;;;;;5051050;28;20142;-79
2022/04/30 07:18:02;;;;;;;15.20;11.18;;;;;;;;;;5051836;28;20021;-82
2022/04/30 07:20:28;;;;;;;15.27;10.85;;;13.70;99.90;;;;;;5050560;28;20035;-81
2022/04/30 07:22:53;;;;;;;16.50;11.30;;;13.80;99.90;;;;;;5067734;28;20028;-83
2022/04/30 07:25:19;;;;;;;17.83;11.45;;;13.70;99.90;;;;;;5067622;28;20032;-85
2022/04/30 07:27:44;;;;;;;16.40;11.15;;;13.70;99.90;;;;;;5047971;23;20045;-83
2022/04/30 07:30:10;;;;;;;16.23;11.50;;;13.70;99.90;;;;;;5036099;28;20049;-84
2022/04/30 07:32:40;;;;;;;18.42;11.65;;;13.70;99.90;;;;;;5023503;28;20033;-82
2022/04/30 07:35:06;;;;;;;16.85;11.57;;;13.80;99.90;;;;;;5036986;28;20025;-84
2022/04/30 07:37:31;;;;;;;15.90;10.73;;;13.90;99.90;;;;;;5019754;28;20029;-85
2022/04/30 07:39:57;;;;;;;16.35;11.35;;;;;;;;;;5031190;28;20030;-83
2022/04/30 07:42:23;;;;;;;15.63;11.57;;;;;;;;;;5029569;28;20029;-81
2022/04/30 07:44:49;;;;;;;16.55;11.55;;;;;;;;;;5017402;28;20029;-84
2022/04/30 07:47:17;;;;;;;20.05;11.23;;;;;;;;;;5012500;28;20376;-82
2022/04/30 07:49:42;;;;;;;16.10;10.57;;;14.60;99.90;;;;;;5010958;28;20022;-84
2022/04/30 07:52:08;;;;;;;16.00;11.23;;;;;;;;;;5029065;28;20043;-83
2022/04/30 07:54:34;;;;;;;15.23;11.45;;;14.80;99.90;;;;;;5015501;28;20025;-81
2022/04/30 07:57:00;;;;;;;15.55;10.85;;;14.90;99.90;;;;;;5017799;28;20124;-86
2022/04/30 07:59:26;;;;;;;15.40;9.95;;;15.30;99.90;;;;;;5014863;28;20014;-81
2022/04/30 08:01:52;;;;;;;17.08;10.90;;;14.90;99.90;;;;;;5011602;28;20038;-82
2022/04/30 08:04:19;;;;;;;16.58;10.65;;;;;;;;;;5001761;28;20037;-79
2022/04/30 08:06:45;;;;;;;16.45;10.48;;;;;;;;;;5013882;28;20030;-82
2022/04/30 08:09:11;;;;;;;14.55;10.07;;;15.40;99.90;;;;;;5035747;28;20024;-81
2022/04/30 08:11:37;;;;;;;16.95;10.85;;;;;;;;;;5005815;28;20025;-81
2022/04/30 08:14:03;;;;;;;16.27;11.23;;;;;;;;;;5027772;28;20026;-82
2022/04/30 08:16:29;;;;;;;14.77;9.98;;;15.00;99.90;;;;;;5028672;28;20026;-81
2022/04/30 08:18:55;;;;;;;16.17;10.45;;;15.20;99.90;;;;;;5029614;28;20472;-82
2022/04/30 08:21:21;;;;;;;14.50;10.20;;;16.00;99.90;;;;;;5029466;28;20025;-81
2022/04/30 08:23:46;;;;;;;15.50;10.57;;;15.40;99.40;;;;;;5018285;28;20146;-83
2022/04/30 08:26:12;;;;;;;15.98;9.85;;;15.40;99.70;;;;;;5025163;28;20089;-83
2022/04/30 08:28:38;;;;;;;14.77;11.25;;;15.40;99.70;;;;;;5023063;28;20029;-82
2022/04/30 08:31:04;;;;;;;16.10;10.70;;;;;;;;;;5026957;28;20022;-84
2022/04/30 08:33:30;;;;;;;15.93;9.82;;;15.70;99.20;;;;;;5027690;28;20030;-87
2022/04/30 08:35:56;;;;;;;14.50;10.63;;;;;;;;;;5034717;28;20173;-85
2022/04/30 08:38:22;;;;;;;13.52;10.45;;;;;;;;;;5036727;28;20089;-83
2022/04/30 08:40:48;;;;;;;15.23;10.52;;;;;;;;;;5052126;28;20036;-83
2022/04/30 08:43:15;;;;;;;14.38;10.20;;;15.50;99.20;;;;;;5024225;28;20018;-82
2022/04/30 08:45:46;;;;;;;15.32;10.82;;;15.30;99.20;;;;;;5040694;28;20038;-85
2022/04/30 08:48:12;;;;;;;;;;;15.40;99.10;;;;;;5033494;28;20029;-85
2022/04/30 08:50:40;;;;;;;14.55;9.27;;;15.40;99.60;;;;;;5035913;28;19897;-84
2022/04/30 08:53:06;;;;;;;14.50;10.10;;;;;;;;;;5037246;28;20632;-85
2022/04/30 08:55:33;;;;;;;18.90;10.95;;;15.40;99.60;;;;;;5041874;28;20025;-83
2022/04/30 08:57:59;;;;;;;13.27;9.80;;;;;;;;;;5026651;28;20025;-84
2022/04/30 09:00:25;;;;;;;12.65;10.48;;;;;;;;;;5045153;28;20017;-82
2022/04/30 09:02:53;;;;;;;15.10;10.63;;;15.80;98.40;;;;;;5046756;28;20013;-85
2022/04/30 09:05:19;;;;;;;16.30;10.75;;;;;;;;;;5029994;28;20029;-85
2022/04/30 09:07:55;;;;;;;15.50;10.50;;;15.50;99.10;;;;;;5037451;28;20029;-84
2022/04/30 09:10:29;;;;;;;17.88;9.77;;;15.50;99.40;;;;;;5012302;28;20029;-83
2022/04/30 09:13:09;;;;;;;14.00;9.93;;;15.70;98.80;;;;;;5030084;28;20027;-83
2022/04/30 09:15:36;;;;;;;;;;;15.70;99.00;;;;;;5029130;28;20026;-82
2022/04/30 09:18:04;;;;;;;14.00;9.32;;;15.50;98.70;;;;;;5026706;28;19909;-83
2022/04/30 09:20:31;;;;;;;14.40;9.88;;;15.60;98.90;;;;;;5017228;28;20036;-84
2022/04/30 09:22:57;;;;;;;13.35;9.90;;;15.40;98.50;;;;;;5026967;28;20861;-81
2022/04/30 09:25:23;;;;;;;13.90;10.40;;;15.40;99.10;;;;;;5027456;28;20026;-83
2022/04/30 09:27:52;;;;;;;15.48;10.30;;;15.40;99.40;;;;;;5009673;28;20030;-82
2022/04/30 09:30:29;;;;;;;13.73;10.05;;;15.30;99.70;;;;;;5003457;28;20341;-83
2022/04/30 09:33:05;;;;;;;16.08;9.90;;;15.20;99.60;;;;;;5010155;28;20022;-83
2022/04/30 09:38:18;;;;;;;15.55;10.95;;;15.20;99.90;;;;;;5021268;28;20294;-84
2022/04/30 09:40:53;;;;;;;13.00;10.38;;;15.10;99.90;;;;;;5024862;28;20128;-81
2022/04/30 09:43:20;;;;;;;16.20;10.68;;;15.50;99.20;;;;;;5031565;28;20158;-81
2022/04/30 09:45:46;;;;;;;14.35;9.77;;;15.50;99.40;;;;;;5010170;28;20036;-82
2022/04/30 09:54:00;;;;;;;12.05;8.93;;;16.00;97.70;;;;;;5022932;28;20041;-83
2022/04/30 09:56:35;;;;;;;10.93;8.65;;;15.80;98.20;;;;;;5032640;28;20025;-84
2022/04/30 09:59:11;;;;;;;13.20;9.70;;;16.00;97.60;;;;;;5014800;28;20025;-83
2022/04/30 10:01:39;;;;;;;11.50;8.88;;;15.90;97.80;;;;;;5006620;28;20034;-81
2022/04/30 10:04:10;;;;;;;12.27;8.80;;;16.80;97.80;;;;;;5015767;28;20056;-85
2022/04/30 10:06:43;;;;;;;13.43;8.70;;;16.20;96.90;;;;;;5013571;28;20022;-84
2022/04/30 10:09:14;;;;;;;15.95;10.43;;;16.30;96.40;;;;;;5017146;28;20036;-84
2022/04/30 10:11:54;;;;;;;13.10;8.90;;;16.20;96.40;;;;;;5006895;28;20029;-84
2022/04/30 10:14:38;;;;;;;13.18;8.52;;;16.20;96.60;;;;;;5031089;28;20018;-83
2022/04/30 10:17:13;;;;;;;10.68;8.40;;;16.20;96.10;;;;;;5014098;28;20036;-83
2022/04/30 10:19:57;;;;;;;11.40;8.07;;;16.10;96.10;;;;;;5024967;28;20026;-84
2022/04/30 10:22:23;;;;;;;11.77;8.57;;;16.20;96.00;;;;;;5019368;28;20033;-81
2022/04/30 10:24:50;;;;;;;11.23;7.95;;;16.30;96.50;;;;;;5007751;28;20034;-84
2022/04/30 10:27:17;;;;;;;14.15;8.77;;;16.50;95.50;;;;;;5030711;28;20072;-83
2022/04/30 10:29:56;;;;;;;12.45;8.70;;;16.70;94.90;;;;;;5008842;28;20045;-84
2022/04/30 10:32:41;;;;;;;10.63;8.30;;;16.80;94.30;;;;;;5028474;28;20018;-85
2022/04/30 10:35:07;;;;;;;10.90;8.10;;;16.70;94.40;;;;;;5009225;28;20386;-86
2022/04/30 10:37:38;;;;;;;10.13;8.05;;;17.00;94.20;;;;;;5019431;28;20385;-83
2022/04/30 10:40:08;;;;;;;10.20;8.10;;;16.90;93.70;;;;;;5013679;28;20037;-83
2022/04/30 10:42:34;;;;;;;11.02;7.70;;;;;;;;;;4994533;28;20050;-82
2022/04/30 10:45:00;;;;;;;9.80;7.55;;;16.80;93.50;;;;;;5015942;28;20030;-83
2022/04/30 10:47:26;;;;;;;10.15;7.55;;;16.60;93.60;;;;;;5019139;28;20044;-83
2022/04/30 10:49:52;;;;;;;10.90;7.97;;;16.60;93.90;;;;;;4990567;28;20443;-83
2022/04/30 10:52:24;;;;;;;10.40;8.00;;;16.50;93.60;;;;;;5000754;28;20030;-85
2022/04/30 10:54:51;;;;;;;9.40;7.70;;;16.50;93.60;;;;;;5020793;28;20041;-85
2022/04/30 10:57:18;;;;;;;11.98;8.07;;;16.40;93.80;;;;;;5022926;28;20606;-82
2022/04/30 10:59:44;;;;;;;10.23;7.45;;;;;;;;;;5028328;28;20036;-85
2022/04/30 11:02:14;;;;;;;10.43;7.03;;;16.50;93.80;;;;;;5038987;28;20038;-86
2022/04/30 11:04:43;;;;;;;10.07;7.43;;;16.40;94.00;;;;;;5033907;28;20037;-79
2022/04/30 11:07:09;;;;;;;10.30;7.57;;;;;;;;;;5022495;28;20057;-85
2022/04/30 11:09:47;;;;;;;10.85;7.65;;;16.40;93.70;;;;;;5022913;28;20029;-84
2022/04/30 11:12:17;;;;;;;12.18;7.53;;;16.50;93.80;;;;;;5014856;28;20108;-83
2022/04/30 11:14:45;;;;;;;10.05;7.32;;;16.40;93.50;;;;;;5017652;28;20045;-82
2022/04/30 11:17:11;;;;;;;10.63;7.22;;;16.40;93.10;;;;;;4999926;28;20741;-82
2022/04/30 11:19:41;;;;;;;14.00;7.20;;;16.50;93.20;;;;;;5023382;28;20357;-82
2022/04/30 11:22:11;;;;;;;10.88;7.20;;;16.50;93.40;;;;;;5005333;28;20033;-84
2022/04/30 11:24:37;;;;;;;9.18;6.10;;;16.40;93.20;;;;;;5003385;28;20030;-83
2022/04/30 11:27:08;;;;;;;14.23;7.00;;;16.70;92.40;;;;;;5014736;28;20494;-84
2022/04/30 11:29:38;;;;;;;;;;;16.80;91.70;;;;;;5005096;28;20038;-83
2022/04/30 11:32:04;;;;;;;10.18;6.82;;;17.10;90.90;;;;;;5020527;28;19914;-83
2022/04/30 11:34:31;;;;;;;10.52;7.00;;;;;;;;;;5004743;28;20042;-83
2022/04/30 11:36:59;;;;;;;8.77;6.93;;;17.10;90.60;;;;;;5023538;28;20049;-82
2022/04/30 11:39:26;;;;;;;9.70;6.78;;;17.20;90.70;;;;;;5020499;28;20282;-81
2022/04/30 11:41:54;;;;;;;11.15;6.20;;;17.10;90.60;;;;;;5003807;28;20039;-82
2022/04/30 11:44:21;;;;;;;8.57;6.95;;;17.40;89.10;;;;;;5020031;28;21026;-79
2022/04/30 11:46:49;;;;;;;8.75;6.45;;;17.50;89.70;;;;;;5002388;28;20030;-83
2022/04/30 11:49:19;;;;;;;11.05;6.93;;;17.50;89.10;;;;;;4997945;28;20485;-85
2022/04/30 11:51:45;;;;;;;;;;;17.60;88.30;;;;;;5010813;28;20046;-86
2022/04/30 11:54:17;;;;;;;8.52;6.38;;;17.60;88.00;;;;;;5006559;28;19909;-83
2022/04/30 11:56:44;;;;;;;11.60;6.43;;;;;;;;;;5004541;28;20047;-82
2022/04/30 11:59:10;;;;;;;12.70;7.15;;;17.50;88.50;;;;;;5005803;28;20036;-85
2022/04/30 12:01:38;;;;;;;10.40;6.10;;;17.20;87.80;;;;;;5004487;28;20040;-84
2022/04/30 12:04:14;;;;;;;8.98;5.72;;;17.10;87.80;;;;;;5018260;28;20022;-83
2022/04/30 12:06:45;;;;;;;9.50;5.95;;;16.90;89.70;;;;;;5017368;28;20032;-85
2022/04/30 12:09:13;;;;;;;;;;;16.90;89.80;;;;;;5002515;28;20022;-84
2022/04/30 12:11:53;;;;;;;9.43;6.60;;;16.90;90.20;;;;;;5008440;28;20446;-83
2022/04/30 12:14:20;;;;;;;10.60;6.50;;;16.60;90.50;;;;;;5025117;28;20037;-83
2022/04/30 12:16:47;;;;;;;10.40;6.80;;;18.60;91.20;;;;;;5016224;28;20044;-81
2022/04/30 12:25:09;;;;;;;12.55;7.82;;;16.60;91.00;;;;;;5018889;28;20518;-84
2022/04/30 12:27:36;;;;;;;11.25;7.78;;;;;;;;;;5027833;28;20064;-86
2022/04/30 12:30:22;;;;;;;13.05;7.18;;;16.90;90.30;;;;;;5008146;28;20030;-86
2022/04/30 12:32:53;;;;;;;11.57;6.57;;;17.00;90.30;;;;;;5004762;28;20026;-81
2022/04/30 12:35:26;;;;;;;7.57;6.03;;;17.00;90.20;;;;;;4998166;28;20060;-81
2022/04/30 12:38:15;;;;;;;9.77;6.95;;;17.10;89.60;;;;;;5012095;28;20771;-82
2022/04/30 12:40:50;;;;;;;11.98;6.72;;;17.20;90.20;;;;;;5019583;28;20052;-85
2022/04/30 12:43:17;;;;;;;10.93;6.82;;;17.10;90.00;;;;;;5029946;28;20049;-87
2022/04/30 12:45:44;;;;;;;9.93;7.60;;;17.20;89.50;;;;;;5025284;28;20113;-84
2022/04/30 12:48:10;;;;;;;10.20;6.50;;;;;;;;;;5020440;28;20026;-85
2022/04/30 12:50:37;;;;;;;9.48;6.45;;;17.40;89.00;;;;;;5022551;28;20029;-82
2022/04/30 12:53:03;;;;;;;9.40;6.95;;;;;;;;;;4991570;28;20056;-83
2022/04/30 12:55:30;;;;;;;8.73;6.18;;;17.20;89.40;;;;;;5018848;28;20030;-83
2022/04/30 12:57:56;;;;;;;11.88;6.75;;;;;;;;;;5021721;28;20360;-83
2022/04/30 13:00:22;;;;;;;9.73;6.68;;;;;;;;;;5011069;28;20179;-86
2022/04/30 13:02:48;;;;;;;9.88;6.47;;;;;;;;;;5015230;28;20257;-84
2022/04/30 13:05:16;;;;;;;8.35;6.47;;;17.00;90.10;;;;;;5017008;28;20056;-82
2022/04/30 13:07:43;;;;;;;13.48;6.82;;;17.10;89.90;;;;;;5016796;28;20034;-85
2022/04/30 13:15:40;;;;;;;8.75;6.00;;;17.40;89.40;;;;;;5016677;28;20135;-83
2022/04/30 13:18:07;;;;;;;9.73;6.28;;;17.90;85.40;;;;;;5005002;28;20042;-85
2022/04/30 13:20:34;;;;;;;9.10;5.93;;;18.00;85.40;;;;;;5006305;28;20475;-84
2022/04/30 13:22:59;;;;;;;10.30;5.97;;;17.80;85.30;;;;;;5007777;28;20050;-85
2022/04/30 13:25:26;;;;;;;9.82;6.25;;;17.70;85.70;;;;;;5015328;28;20041;-83
2022/04/30 13:27:52;;;;;;;6.95;5.38;;;17.80;86.50;;;;;;5006540;28;20040;-86
2022/04/30 13:30:18;;;;;;;8.40;5.70;;;17.50;86.20;;;;;;5022943;28;20026;-85
2022/04/30 13:32:48;;;;;;;7.75;6.03;;;17.40;86.50;;;;;;5007615;28;20104;-84
2022/04/30 13:35:14;;;;;;;9.13;5.60;;;;;;;;;;5008097;28;20026;-82
2022/04/30 13:37:43;;;;;;;10.38;5.78;;;17.50;85.50;;;;;;5021183;28;20280;-85
2022/04/30 13:40:10;;;;;;;10.27;5.47;;;17.50;86.50;;;;;;5018547;28;20105;-85
2022/04/30 13:42:37;;;;;;;8.30;5.78;;;17.80;84.90;;;;;;5003200;28;20033;-85
2022/04/30 13:45:04;;;;;;;8.35;5.55;;;18.70;82.00;;;;;;5004693;28;20029;-82
2022/04/30 13:47:30;;;;;;;7.72;5.50;;;18.80;81.60;;;;;;4988103;28;20034;-82
2022/04/30 13:49:56;;;;;;;9.32;6.03;;;;;;;;;;5007594;28;20109;-82
2022/04/30 13:52:22;;;;;;;7.40;5.72;;;;;;;;;;5010831;28;20254;-84
2022/04/30 13:54:48;;;;;;;7.38;5.45;;;;;;;;;;5019107;28;20024;-84
2022/04/30 13:57:14;;;;;;;7.38;4.65;;;;;;;;;;4995198;28;20041;-83
2022/04/30 13:59:40;;;;;;;7.65;5.15;;;17.90;81.50;;;;;;5017357;28;20038;-82
2022/04/30 14:02:10;;;;;;;7.82;5.50;;;17.80;81.30;;;;;;4997992;28;20036;-83
2022/04/30 14:04:36;;;;;;;8.48;5.07;;;;;;;;;;5017772;28;20033;-84
2022/04/30 14:07:03;;;;;;;7.57;4.45;;;17.30;81.30;;;;;;5004466;28;20029;-82